sensor_id;sensor_type;location;lat;lon;timestamp;temperature;humidity
37222;DHT22;23119;51.842;-2.230;2023-05-23T00:01:33;14.30;99.90
37222;DHT22;23119;51.842;-2.230;2023-05-23T00:04:05;14.30;99.90
37222;DHT22;23119;51.842;-2.230;2023-05-23T00:06:33;14.80;99.90
37222;DHT22;23119;51.842;-2.230;2023-05-23T00:09:00;14.10;99.90
37222;DHT22;23119;51.842;-2.230;2023-05-23T00:11:28;14.10;99.90
37222;DHT22;23119;51.842;-2.230;2023-05-23T00:13:56;14.10;99.90
37222;DHT22;23119;51.842;-2.230;2023-05-23T00:16:31;14.10;99.90
37222;DHT22;23119;51.842;-2.230;2023-05-23T00:18:57;14.00;99.90
37222;DHT22;23119;51.842;-2.230;2023-05-23T00:21:26;14.00;99.90
37222;DHT22;23119;51.842;-2.230;2023-05-23T00:23:54;14.00;99.90
37222;DHT22;23119;51.842;-2.230;2023-05-23T00:26:19;13.90;99.90
37222;DHT22;23119;51.842;-2.230;2023-05-23T00:28:48;13.90;99.90
37222;DHT22;23119;51.842;-2.230;2023-05-23T00:31:14;13.80;99.90
37222;DHT22;23119;51.842;-2.230;2023-05-23T00:33:42;13.80;99.90
37222;DHT22;23119;51.842;-2.230;2023-05-23T00:36:26;13.70;99.90
37222;DHT22;23119;51.842;-2.230;2023-05-23T00:38:51;13.70;99.90
37222;DHT22;23119;51.842;-2.230;2023-05-23T00:41:19;13.60;99.90
37222;DHT22;23119;51.842;-2.230;2023-05-23T00:43:48;13.50;99.90
37222;DHT22;23119;51.842;-2.230;2023-05-23T00:46:14;13.60;99.90
37222;DHT22;23119;51.842;-2.230;2023-05-23T00:48:40;13.60;99.90
37222;DHT22;23119;51.842;-2.230;2023-05-23T00:51:06;13.60;99.90
37222;DHT22;23119;51.842;-2.230;2023-05-23T00:53:40;13.50;99.90
37222;DHT22;23119;51.842;-2.230;2023-05-23T00:56:09;13.50;99.90
37222;DHT22;23119;51.842;-2.230;2023-05-23T00:58:39;13.50;99.90
37222;DHT22;23119;51.842;-2.230;2023-05-23T01:01:08;13.50;99.90
37222;DHT22;23119;51.842;-2.230;2023-05-23T01:03:34;13.50;99.90
37222;DHT22;23119;51.842;-2.230;2023-05-23T01:06:00;13.40;99.90
37222;DHT22;23119;51.842;-2.230;2023-05-23T01:08:29;13.40;99.90
37222;DHT22;23119;51.842;-2.230;2023-05-23T01:10:58;13.40;99.90
37222;DHT22;23119;51.842;-2.230;2023-05-23T01:13:38;13.30;99.90
37222;DHT22;23119;51.842;-2.230;2023-05-23T01:16:36;13.30;99.90
37222;DHT22;23119;51.842;-2.230;2023-05-23T01:27:56;13.00;99.90
37222;DHT22;23119;51.842;-2.230;2023-05-23T01:30:23;12.90;99.90
37222;DHT22;23119;51.842;-2.230;2023-05-23T01:32:52;12.80;99.90
37222;DHT22;23119;51.842;-2.230;2023-05-23T01:35:24;12.80;99.90
37222;DHT22;23119;51.842;-2.230;2023-05-23T01:37:58;12.70;99.90
37222;DHT22;23119;51.842;-2.230;2023-05-23T01:40:24;12.70;99.90
37222;DHT22;23119;51.842;-2.230;2023-05-23T01:42:55;12.70;99.90
37222;DHT22;23119;51.842;-2.230;2023-05-23T01:45:24;12.70;99.90
37222;DHT22;23119;51.842;-2.230;2023-05-23T01:47:51;12.70;99.90
37222;DHT22;23119;51.842;-2.230;2023-05-23T01:50:22;12.70;99.90
37222;DHT22;23119;51.842;-2.230;2023-05-23T01:52:48;12.60;99.90
37222;DHT22;23119;51.842;-2.230;2023-05-23T01:55:16;12.60;99.90
37222;DHT22;23119;51.842;-2.230;2023-05-23T01:57:50;12.60;99.90
37222;DHT22;23119;51.842;-2.230;2023-05-23T02:00:16;12.60;99.90
37222;DHT22;23119;51.842;-2.230;2023-05-23T02:02:43;12.60;99.90
37222;DHT22;23119;51.842;-2.230;2023-05-23T02:05:09;12.60;99.90
37222;DHT22;23119;51.842;-2.230;2023-05-23T02:07:47;12.60;99.90
37222;DHT22;23119;51.842;-2.230;2023-05-23T02:10:13;12.50;99.90
37222;DHT22;23119;51.842;-2.230;2023-05-23T02:12:38;12.50;99.90
37222;DHT22;23119;51.842;-2.230;2023-05-23T02:15:04;12.50;99.90
37222;DHT22;23119;51.842;-2.230;2023-05-23T02:17:32;12.50;99.90
37222;DHT22;23119;51.842;-2.230;2023-05-23T02:20:00;12.40;99.90
37222;DHT22;23119;51.842;-2.230;2023-05-23T02:22:29;12.40;99.90
37222;DHT22;23119;51.842;-2.230;2023-05-23T02:24:54;12.30;99.90
37222;DHT22;23119;51.842;-2.230;2023-05-23T02:27:20;12.40;99.90
37222;DHT22;23119;51.842;-2.230;2023-05-23T02:29:46;12.40;99.90
37222;DHT22;23119;51.842;-2.230;2023-05-23T02:32:17;12.30;99.90
37222;DHT22;23119;51.842;-2.230;2023-05-23T02:34:48;12.30;99.90
37222;DHT22;23119;51.842;-2.230;2023-05-23T02:37:15;12.20;99.90
37222;DHT22;23119;51.842;-2.230;2023-05-23T02:39:44;12.20;99.90
37222;DHT22;23119;51.842;-2.230;2023-05-23T02:42:13;12.20;99.90
37222;DHT22;23119;51.842;-2.230;2023-05-23T02:44:38;12.20;99.90
37222;DHT22;23119;51.842;-2.230;2023-05-23T02:47:09;12.10;99.90
37222;DHT22;23119;51.842;-2.230;2023-05-23T02:49:35;12.10;99.90
37222;DHT22;23119;51.842;-2.230;2023-05-23T02:52:00;12.10;99.90
37222;DHT22;23119;51.842;-2.230;2023-05-23T02:54:26;12.10;99.90
37222;DHT22;23119;51.842;-2.230;2023-05-23T02:56:52;12.00;99.90
37222;DHT22;23119;51.842;-2.230;2023-05-23T02:59:20;12.00;99.90
37222;DHT22;23119;51.842;-2.230;2023-05-23T03:01:47;12.00;99.90
37222;DHT22;23119;51.842;-2.230;2023-05-23T03:04:16;12.00;99.90
37222;DHT22;23119;51.842;-2.230;2023-05-23T03:06:42;12.00;99.90
37222;DHT22;23119;51.842;-2.230;2023-05-23T03:09:09;12.00;99.90
37222;DHT22;23119;51.842;-2.230;2023-05-23T03:11:35;12.00;99.90
37222;DHT22;23119;51.842;-2.230;2023-05-23T03:14:03;12.00;99.90
37222;DHT22;23119;51.842;-2.230;2023-05-23T03:16:29;12.00;99.90
37222;DHT22;23119;51.842;-2.230;2023-05-23T03:18:58;11.90;99.90
37222;DHT22;23119;51.842;-2.230;2023-05-23T03:21:26;11.90;99.90
37222;DHT22;23119;51.842;-2.230;2023-05-23T03:23:52;11.90;99.90
37222;DHT22;23119;51.842;-2.230;2023-05-23T03:26:20;11.90;99.90
37222;DHT22;23119;51.842;-2.230;2023-05-23T03:28:51;11.90;99.90
37222;DHT22;23119;51.842;-2.230;2023-05-23T03:31:19;11.90;99.90
37222;DHT22;23119;51.842;-2.230;2023-05-23T03:33:49;11.90;99.90
37222;DHT22;23119;51.842;-2.230;2023-05-23T03:36:21;11.90;99.90
37222;DHT22;23119;51.842;-2.230;2023-05-23T03:38:52;11.90;99.90
37222;DHT22;23119;51.842;-2.230;2023-05-23T03:41:21;11.80;99.90
37222;DHT22;23119;51.842;-2.230;2023-05-23T03:43:46;11.80;99.90
37222;DHT22;23119;51.842;-2.230;2023-05-23T03:46:12;11.80;99.90
37222;DHT22;23119;51.842;-2.230;2023-05-23T03:48:40;11.80;99.90
37222;DHT22;23119;51.842;-2.230;2023-05-23T03:51:11;11.70;99.90
37222;DHT22;23119;51.842;-2.230;2023-05-23T03:53:40;11.70;99.90
37222;DHT22;23119;51.842;-2.230;2023-05-23T03:56:10;11.80;99.90
37222;DHT22;23119;51.842;-2.230;2023-05-23T03:58:36;11.70;99.90
37222;DHT22;23119;51.842;-2.230;2023-05-23T04:01:05;11.70;99.90
37222;DHT22;23119;51.842;-2.230;2023-05-23T04:03:31;11.70;99.90
37222;DHT22;23119;51.842;-2.230;2023-05-23T04:05:58;11.70;99.90
37222;DHT22;23119;51.842;-2.230;2023-05-23T04:08:28;11.70;99.90
37222;DHT22;23119;51.842;-2.230;2023-05-23T04:10:57;11.70;99.90
37222;DHT22;23119;51.842;-2.230;2023-05-23T04:13:23;11.70;99.90
37222;DHT22;23119;51.842;-2.230;2023-05-23T04:15:55;11.70;99.90
37222;DHT22;23119;51.842;-2.230;2023-05-23T04:18:21;11.70;99.90
37222;DHT22;23119;51.842;-2.230;2023-05-23T04:20:48;11.70;99.90
37222;DHT22;23119;51.842;-2.230;2023-05-23T04:23:19;11.80;99.90
37222;DHT22;23119;51.842;-2.230;2023-05-23T04:25:47;11.80;99.90
37222;DHT22;23119;51.842;-2.230;2023-05-23T04:28:24;11.80;99.90
37222;DHT22;23119;51.842;-2.230;2023-05-23T04:30:50;11.90;99.90
37222;DHT22;23119;51.842;-2.230;2023-05-23T04:33:19;12.00;99.90
37222;DHT22;23119;51.842;-2.230;2023-05-23T04:35:47;12.10;99.90
37222;DHT22;23119;51.842;-2.230;2023-05-23T04:38:13;12.10;99.90
37222;DHT22;23119;51.842;-2.230;2023-05-23T04:40:42;12.20;99.90
37222;DHT22;23119;51.842;-2.230;2023-05-23T04:43:10;12.30;99.90
37222;DHT22;23119;51.842;-2.230;2023-05-23T04:45:43;12.30;99.90
37222;DHT22;23119;51.842;-2.230;2023-05-23T04:48:12;12.40;99.90
37222;DHT22;23119;51.842;-2.230;2023-05-23T04:50:44;12.30;99.90
37222;DHT22;23119;51.842;-2.230;2023-05-23T04:53:15;12.40;99.90
37222;DHT22;23119;51.842;-2.230;2023-05-23T04:55:44;12.40;99.90
37222;DHT22;23119;51.842;-2.230;2023-05-23T04:58:10;12.50;99.90
37222;DHT22;23119;51.842;-2.230;2023-05-23T05:00:38;12.50;99.90
37222;DHT22;23119;51.842;-2.230;2023-05-23T05:03:07;12.60;99.90
37222;DHT22;23119;51.842;-2.230;2023-05-23T05:05:36;12.70;99.90
37222;DHT22;23119;51.842;-2.230;2023-05-23T05:08:04;12.90;99.90
37222;DHT22;23119;51.842;-2.230;2023-05-23T05:10:30;13.30;99.90
37222;DHT22;23119;51.842;-2.230;2023-05-23T05:12:56;13.70;99.90
37222;DHT22;23119;51.842;-2.230;2023-05-23T05:15:26;13.90;99.90
37222;DHT22;23119;51.842;-2.230;2023-05-23T05:17:54;14.30;99.90
37222;DHT22;23119;51.842;-2.230;2023-05-23T05:20:20;14.60;99.90
37222;DHT22;23119;51.842;-2.230;2023-05-23T05:22:54;14.90;99.90
37222;DHT22;23119;51.842;-2.230;2023-05-23T05:25:20;15.10;99.90
37222;DHT22;23119;51.842;-2.230;2023-05-23T05:27:46;15.30;99.90
37222;DHT22;23119;51.842;-2.230;2023-05-23T05:30:12;15.40;99.90
37222;DHT22;23119;51.842;-2.230;2023-05-23T05:32:40;15.60;99.90
37222;DHT22;23119;51.842;-2.230;2023-05-23T05:35:10;15.90;99.90
37222;DHT22;23119;51.842;-2.230;2023-05-23T05:37:39;16.20;99.90
37222;DHT22;23119;51.842;-2.230;2023-05-23T05:40:07;16.40;99.90
37222;DHT22;23119;51.842;-2.230;2023-05-23T05:42:36;16.30;99.90
37222;DHT22;23119;51.842;-2.230;2023-05-23T05:45:06;16.30;99.90
37222;DHT22;23119;51.842;-2.230;2023-05-23T05:47:37;16.30;99.90
37222;DHT22;23119;51.842;-2.230;2023-05-23T05:50:06;16.20;99.90
37222;DHT22;23119;51.842;-2.230;2023-05-23T05:52:35;16.20;99.90
37222;DHT22;23119;51.842;-2.230;2023-05-23T05:55:10;16.20;99.90
37222;DHT22;23119;51.842;-2.230;2023-05-23T05:57:37;16.50;99.90
37222;DHT22;23119;51.842;-2.230;2023-05-23T06:00:08;16.90;99.90
37222;DHT22;23119;51.842;-2.230;2023-05-23T06:02:42;17.40;99.90
37222;DHT22;23119;51.842;-2.230;2023-05-23T06:05:10;17.80;99.90
37222;DHT22;23119;51.842;-2.230;2023-05-23T06:07:39;18.50;99.90
37222;DHT22;23119;51.842;-2.230;2023-05-23T06:10:06;18.70;99.90
37222;DHT22;23119;51.842;-2.230;2023-05-23T06:12:35;18.90;99.90
37222;DHT22;23119;51.842;-2.230;2023-05-23T06:15:10;18.90;99.60
37222;DHT22;23119;51.842;-2.230;2023-05-23T06:17:36;18.80;99.70
37222;DHT22;23119;51.842;-2.230;2023-05-23T06:20:02;18.40;99.60
37222;DHT22;23119;51.842;-2.230;2023-05-23T06:22:32;18.10;99.80
37222;DHT22;23119;51.842;-2.230;2023-05-23T06:24:58;17.80;99.90
37222;DHT22;23119;51.842;-2.230;2023-05-23T06:27:26;17.60;99.90
37222;DHT22;23119;51.842;-2.230;2023-05-23T06:29:52;17.40;99.90
37222;DHT22;23119;51.842;-2.230;2023-05-23T06:32:22;17.20;99.90
37222;DHT22;23119;51.842;-2.230;2023-05-23T06:34:51;17.00;99.90
37222;DHT22;23119;51.842;-2.230;2023-05-23T06:37:16;17.00;99.90
37222;DHT22;23119;51.842;-2.230;2023-05-23T06:39:42;17.10;99.90
37222;DHT22;23119;51.842;-2.230;2023-05-23T06:42:16;17.20;99.90
37222;DHT22;23119;51.842;-2.230;2023-05-23T06:44:44;17.50;99.90
37222;DHT22;23119;51.842;-2.230;2023-05-23T06:47:10;17.60;99.90
37222;DHT22;23119;51.842;-2.230;2023-05-23T06:49:36;17.70;99.90
37222;DHT22;23119;51.842;-2.230;2023-05-23T06:52:04;17.90;99.90
37222;DHT22;23119;51.842;-2.230;2023-05-23T06:54:30;18.00;99.90
37222;DHT22;23119;51.842;-2.230;2023-05-23T06:56:56;18.30;99.90
37222;DHT22;23119;51.842;-2.230;2023-05-23T06:59:21;18.50;99.70
37222;DHT22;23119;51.842;-2.230;2023-05-23T07:01:49;18.50;99.40
37222;DHT22;23119;51.842;-2.230;2023-05-23T07:04:19;18.50;99.40
37222;DHT22;23119;51.842;-2.230;2023-05-23T07:06:45;18.30;99.40
37222;DHT22;23119;51.842;-2.230;2023-05-23T07:09:13;18.10;99.60
37222;DHT22;23119;51.842;-2.230;2023-05-23T07:11:39;18.00;99.80
37222;DHT22;23119;51.842;-2.230;2023-05-23T07:14:08;17.90;99.80
37222;DHT22;23119;51.842;-2.230;2023-05-23T07:16:36;18.00;99.80
37222;DHT22;23119;51.842;-2.230;2023-05-23T07:19:04;18.00;99.60
37222;DHT22;23119;51.842;-2.230;2023-05-23T07:21:32;18.00;99.70
37222;DHT22;23119;51.842;-2.230;2023-05-23T07:23:58;17.70;99.90
37222;DHT22;23119;51.842;-2.230;2023-05-23T07:26:23;17.60;99.90
37222;DHT22;23119;51.842;-2.230;2023-05-23T07:28:49;17.70;99.90
37222;DHT22;23119;51.842;-2.230;2023-05-23T07:31:18;17.90;99.90
37222;DHT22;23119;51.842;-2.230;2023-05-23T07:33:48;17.90;99.90
37222;DHT22;23119;51.842;-2.230;2023-05-23T07:36:17;17.90;99.90
37222;DHT22;23119;51.842;-2.230;2023-05-23T07:38:43;17.90;99.90
37222;DHT22;23119;51.842;-2.230;2023-05-23T07:41:17;17.90;99.90
37222;DHT22;23119;51.842;-2.230;2023-05-23T07:43:43;17.90;99.90
37222;DHT22;23119;51.842;-2.230;2023-05-23T07:46:08;17.80;99.90
37222;DHT22;23119;51.842;-2.230;2023-05-23T07:48:34;17.70;99.90
37222;DHT22;23119;51.842;-2.230;2023-05-23T07:51:03;17.70;99.90
37222;DHT22;23119;51.842;-2.230;2023-05-23T07:53:31;17.50;99.90
37222;DHT22;23119;51.842;-2.230;2023-05-23T07:55:59;17.60;99.90
37222;DHT22;23119;51.842;-2.230;2023-05-23T07:58:33;17.80;99.90
37222;DHT22;23119;51.842;-2.230;2023-05-23T08:01:02;18.00;99.90
37222;DHT22;23119;51.842;-2.230;2023-05-23T08:03:30;18.30;99.90
37222;DHT22;23119;51.842;-2.230;2023-05-23T08:05:56;18.80;99.50
37222;DHT22;23119;51.842;-2.230;2023-05-23T08:08:24;19.70;98.70
37222;DHT22;23119;51.842;-2.230;2023-05-23T08:10:55;20.60;97.60
37222;DHT22;23119;51.842;-2.230;2023-05-23T08:13:23;21.90;96.10
37222;DHT22;23119;51.842;-2.230;2023-05-23T08:15:49;23.00;94.10
37222;DHT22;23119;51.842;-2.230;2023-05-23T08:18:17;23.80;92.50
37222;DHT22;23119;51.842;-2.230;2023-05-23T08:20:45;24.70;91.70
37222;DHT22;23119;51.842;-2.230;2023-05-23T08:23:11;25.00;90.70
37222;DHT22;23119;51.842;-2.230;2023-05-23T08:25:37;25.40;90.20
37222;DHT22;23119;51.842;-2.230;2023-05-23T08:28:03;25.60;90.00
37222;DHT22;23119;51.842;-2.230;2023-05-23T08:30:31;25.40;88.90
37222;DHT22;23119;51.842;-2.230;2023-05-23T08:33:00;25.20;88.50
37222;DHT22;23119;51.842;-2.230;2023-05-23T08:35:31;25.30;88.70
37222;DHT22;23119;51.842;-2.230;2023-05-23T08:38:02;25.20;87.50
37222;DHT22;23119;51.842;-2.230;2023-05-23T08:40:37;25.30;88.60
37222;DHT22;23119;51.842;-2.230;2023-05-23T08:43:04;25.60;88.40
37222;DHT22;23119;51.842;-2.230;2023-05-23T08:45:30;25.70;88.10
37222;DHT22;23119;51.842;-2.230;2023-05-23T08:47:59;25.60;86.50
37222;DHT22;23119;51.842;-2.230;2023-05-23T08:50:27;25.40;86.10
37222;DHT22;23119;51.842;-2.230;2023-05-23T08:53:00;25.40;86.20
37222;DHT22;23119;51.842;-2.230;2023-05-23T08:55:27;25.10;85.70
37222;DHT22;23119;51.842;-2.230;2023-05-23T08:57:55;25.00;86.40
37222;DHT22;23119;51.842;-2.230;2023-05-23T09:00:25;24.90;86.60
37222;DHT22;23119;51.842;-2.230;2023-05-23T09:02:54;24.90;86.90
37222;DHT22;23119;51.842;-2.230;2023-05-23T09:05:22;25.00;85.30
37222;DHT22;23119;51.842;-2.230;2023-05-23T09:07:47;25.10;86.20
37222;DHT22;23119;51.842;-2.230;2023-05-23T09:10:16;25.00;85.40
37222;DHT22;23119;51.842;-2.230;2023-05-23T09:12:45;24.70;84.30
37222;DHT22;23119;51.842;-2.230;2023-05-23T09:15:11;24.20;84.50
37222;DHT22;23119;51.842;-2.230;2023-05-23T09:17:40;23.70;85.70
37222;DHT22;23119;51.842;-2.230;2023-05-23T09:20:11;23.30;86.20
37222;DHT22;23119;51.842;-2.230;2023-05-23T09:22:38;22.90;87.30
37222;DHT22;23119;51.842;-2.230;2023-05-23T09:25:04;22.60;88.30
37222;DHT22;23119;51.842;-2.230;2023-05-23T09:27:30;22.40;88.70
37222;DHT22;23119;51.842;-2.230;2023-05-23T09:30:10;22.30;88.90
37222;DHT22;23119;51.842;-2.230;2023-05-23T09:32:39;22.20;89.60
37222;DHT22;23119;51.842;-2.230;2023-05-23T09:35:07;22.00;90.20
37222;DHT22;23119;51.842;-2.230;2023-05-23T09:37:44;21.80;90.50
37222;DHT22;23119;51.842;-2.230;2023-05-23T09:40:13;21.60;90.70
37222;DHT22;23119;51.842;-2.230;2023-05-23T09:42:45;21.50;90.90
37222;DHT22;23119;51.842;-2.230;2023-05-23T09:45:13;21.40;91.00
37222;DHT22;23119;51.842;-2.230;2023-05-23T09:47:38;21.30;90.80
37222;DHT22;23119;51.842;-2.230;2023-05-23T09:50:05;21.40;90.90
37222;DHT22;23119;51.842;-2.230;2023-05-23T09:52:36;21.20;91.10
37222;DHT22;23119;51.842;-2.230;2023-05-23T09:55:05;21.40;90.70
37222;DHT22;23119;51.842;-2.230;2023-05-23T09:57:34;21.60;90.60
37222;DHT22;23119;51.842;-2.230;2023-05-23T10:00:03;21.80;90.60
37222;DHT22;23119;51.842;-2.230;2023-05-23T10:08:58;22.20;90.10
37222;DHT22;23119;51.842;-2.230;2023-05-23T10:13:46;22.00;89.50
37222;DHT22;23119;51.842;-2.230;2023-05-23T10:19:04;21.80;90.00
37222;DHT22;23119;51.842;-2.230;2023-05-23T10:21:44;21.10;89.70
37222;DHT22;23119;51.842;-2.230;2023-05-23T10:24:14;21.80;90.20
37222;DHT22;23119;51.842;-2.230;2023-05-23T10:26:42;21.60;89.90
37222;DHT22;23119;51.842;-2.230;2023-05-23T10:29:11;21.40;90.00
37222;DHT22;23119;51.842;-2.230;2023-05-23T10:31:37;21.30;90.20
37222;DHT22;23119;51.842;-2.230;2023-05-23T10:37:01;21.30;90.20
37222;DHT22;23119;51.842;-2.230;2023-05-23T10:42:48;21.40;90.10
37222;DHT22;23119;51.842;-2.230;2023-05-23T10:45:21;21.50;90.00
37222;DHT22;23119;51.842;-2.230;2023-05-23T10:47:51;21.40;89.70
37222;DHT22;23119;51.842;-2.230;2023-05-23T10:51:04;21.20;89.50
37222;DHT22;23119;51.842;-2.230;2023-05-23T10:53:42;21.10;89.10
37222;DHT22;23119;51.842;-2.230;2023-05-23T10:56:23;21.00;89.60
37222;DHT22;23119;51.842;-2.230;2023-05-23T10:58:53;20.90;89.90
37222;DHT22;23119;51.842;-2.230;2023-05-23T11:01:19;20.80;90.50
37222;DHT22;23119;51.842;-2.230;2023-05-23T11:06:39;20.80;91.30
37222;DHT22;23119;51.842;-2.230;2023-05-23T11:09:16;20.90;90.90
37222;DHT22;23119;51.842;-2.230;2023-05-23T11:14:52;20.80;90.90
37222;DHT22;23119;51.842;-2.230;2023-05-23T11:17:32;20.80;90.70
37222;DHT22;23119;51.842;-2.230;2023-05-23T11:20:05;21.10;91.00
37222;DHT22;23119;51.842;-2.230;2023-05-23T11:22:32;21.40;90.80
37222;DHT22;23119;51.842;-2.230;2023-05-23T11:24:59;21.60;90.70
37222;DHT22;23119;51.842;-2.230;2023-05-23T11:27:31;21.90;90.60
37222;DHT22;23119;51.842;-2.230;2023-05-23T11:30:15;22.10;89.30
37222;DHT22;23119;51.842;-2.230;2023-05-23T11:32:52;22.20;85.60
37222;DHT22;23119;51.842;-2.230;2023-05-23T11:35:21;22.20;85.10
37222;DHT22;23119;51.842;-2.230;2023-05-23T11:37:47;22.30;86.00
37222;DHT22;23119;51.842;-2.230;2023-05-23T11:40:40;22.40;86.20
37222;DHT22;23119;51.842;-2.230;2023-05-23T11:43:08;22.50;84.10
37222;DHT22;23119;51.842;-2.230;2023-05-23T11:45:35;22.30;84.70
37222;DHT22;23119;51.842;-2.230;2023-05-23T11:48:11;22.40;84.60
37222;DHT22;23119;51.842;-2.230;2023-05-23T11:50:51;22.60;84.70
37222;DHT22;23119;51.842;-2.230;2023-05-23T11:53:19;22.90;83.60
37222;DHT22;23119;51.842;-2.230;2023-05-23T11:55:53;23.00;83.70
37222;DHT22;23119;51.842;-2.230;2023-05-23T11:58:29;22.90;81.80
37222;DHT22;23119;51.842;-2.230;2023-05-23T12:01:13;22.90;83.70
37222;DHT22;23119;51.842;-2.230;2023-05-23T12:03:49;23.10;83.00
37222;DHT22;23119;51.842;-2.230;2023-05-23T12:06:18;23.20;82.70
37222;DHT22;23119;51.842;-2.230;2023-05-23T12:08:51;23.20;79.90
37222;DHT22;23119;51.842;-2.230;2023-05-23T12:11:24;22.90;77.20
37222;DHT22;23119;51.842;-2.230;2023-05-23T12:13:56;22.90;78.50
37222;DHT22;23119;51.842;-2.230;2023-05-23T12:16:21;22.70;79.50
37222;DHT22;23119;51.842;-2.230;2023-05-23T12:18:51;22.60;79.30
37222;DHT22;23119;51.842;-2.230;2023-05-23T12:21:17;22.30;79.90
37222;DHT22;23119;51.842;-2.230;2023-05-23T12:23:43;22.40;80.00
37222;DHT22;23119;51.842;-2.230;2023-05-23T12:26:09;22.20;79.60
37222;DHT22;23119;51.842;-2.230;2023-05-23T12:28:38;22.30;80.90
37222;DHT22;23119;51.842;-2.230;2023-05-23T12:31:12;22.40;81.40
37222;DHT22;23119;51.842;-2.230;2023-05-23T12:33:41;22.80;81.20
37222;DHT22;23119;51.842;-2.230;2023-05-23T12:36:11;23.20;81.30
37222;DHT22;23119;51.842;-2.230;2023-05-23T12:38:37;23.60;81.00
37222;DHT22;23119;51.842;-2.230;2023-05-23T12:41:18;23.90;80.00
37222;DHT22;23119;51.842;-2.230;2023-05-23T12:43:51;24.30;80.00
37222;DHT22;23119;51.842;-2.230;2023-05-23T12:46:18;24.60;78.60
37222;DHT22;23119;51.842;-2.230;2023-05-23T12:48:43;24.70;79.20
37222;DHT22;23119;51.842;-2.230;2023-05-23T12:51:09;24.90;79.50
37222;DHT22;23119;51.842;-2.230;2023-05-23T12:53:37;25.00;79.40
37222;DHT22;23119;51.842;-2.230;2023-05-23T12:56:06;25.10;79.30
37222;DHT22;23119;51.842;-2.230;2023-05-23T12:58:33;25.20;79.50
37222;DHT22;23119;51.842;-2.230;2023-05-23T13:01:02;25.40;79.80
37222;DHT22;23119;51.842;-2.230;2023-05-23T13:03:28;25.30;78.20
37222;DHT22;23119;51.842;-2.230;2023-05-23T13:05:58;25.20;78.40
37222;DHT22;23119;51.842;-2.230;2023-05-23T13:08:26;24.80;78.20
37222;DHT22;23119;51.842;-2.230;2023-05-23T13:10:55;24.60;78.70
37222;DHT22;23119;51.842;-2.230;2023-05-23T13:13:21;24.50;79.00
37222;DHT22;23119;51.842;-2.230;2023-05-23T13:15:52;24.50;78.70
37222;DHT22;23119;51.842;-2.230;2023-05-23T13:18:21;24.60;78.80
37222;DHT22;23119;51.842;-2.230;2023-05-23T13:20:47;24.70;79.40
37222;DHT22;23119;51.842;-2.230;2023-05-23T13:23:15;24.90;78.60
37222;DHT22;23119;51.842;-2.230;2023-05-23T13:26:02;25.00;78.50
37222;DHT22;23119;51.842;-2.230;2023-05-23T13:28:28;25.20;78.60
37222;DHT22;23119;51.842;-2.230;2023-05-23T13:30:58;25.30;78.00
37222;DHT22;23119;51.842;-2.230;2023-05-23T13:33:26;25.30;78.20
37222;DHT22;23119;51.842;-2.230;2023-05-23T13:35:55;25.30;77.10
37222;DHT22;23119;51.842;-2.230;2023-05-23T13:38:24;25.30;76.90
37222;DHT22;23119;51.842;-2.230;2023-05-23T13:40:51;25.00;76.40
37222;DHT22;23119;51.842;-2.230;2023-05-23T13:43:17;24.80;76.70
37222;DHT22;23119;51.842;-2.230;2023-05-23T13:45:43;24.90;77.70
37222;DHT22;23119;51.842;-2.230;2023-05-23T13:48:09;25.00;78.50
37222;DHT22;23119;51.842;-2.230;2023-05-23T13:50:34;25.20;78.70
37222;DHT22;23119;51.842;-2.230;2023-05-23T13:53:00;25.10;78.50
37222;DHT22;23119;51.842;-2.230;2023-05-23T13:55:26;25.10;78.50
37222;DHT22;23119;51.842;-2.230;2023-05-23T13:57:52;25.00;78.50
37222;DHT22;23119;51.842;-2.230;2023-05-23T14:00:22;24.90;78.40
37222;DHT22;23119;51.842;-2.230;2023-05-23T14:02:50;24.70;78.50
37222;DHT22;23119;51.842;-2.230;2023-05-23T14:05:16;24.50;78.80
37222;DHT22;23119;51.842;-2.230;2023-05-23T14:07:43;24.50;79.50
37222;DHT22;23119;51.842;-2.230;2023-05-23T14:10:11;24.40;79.90
37222;DHT22;23119;51.842;-2.230;2023-05-23T14:12:41;24.30;80.40
37222;DHT22;23119;51.842;-2.230;2023-05-23T14:15:08;24.30;80.50
37222;DHT22;23119;51.842;-2.230;2023-05-23T14:17:36;24.40;80.70
37222;DHT22;23119;51.842;-2.230;2023-05-23T14:20:03;24.20;80.40
37222;DHT22;23119;51.842;-2.230;2023-05-23T14:22:29;23.50;80.20
37222;DHT22;23119;51.842;-2.230;2023-05-23T14:24:56;24.10;80.80
37222;DHT22;23119;51.842;-2.230;2023-05-23T14:27:22;24.10;80.90
37222;DHT22;23119;51.842;-2.230;2023-05-23T14:29:54;24.10;81.00
37222;DHT22;23119;51.842;-2.230;2023-05-23T14:32:27;24.10;81.10
37222;DHT22;23119;51.842;-2.230;2023-05-23T14:34:52;23.90;79.70
37222;DHT22;23119;51.842;-2.230;2023-05-23T14:37:19;23.80;80.90
37222;DHT22;23119;51.842;-2.230;2023-05-23T14:39:45;23.70;81.40
37222;DHT22;23119;51.842;-2.230;2023-05-23T14:42:13;23.60;81.40
37222;DHT22;23119;51.842;-2.230;2023-05-23T14:44:39;23.70;81.80
37222;DHT22;23119;51.842;-2.230;2023-05-23T14:47:07;23.80;81.70
37222;DHT22;23119;51.842;-2.230;2023-05-23T14:49:32;23.60;80.80
37222;DHT22;23119;51.842;-2.230;2023-05-23T14:51:58;23.70;81.70
37222;DHT22;23119;51.842;-2.230;2023-05-23T14:54:28;23.70;81.30
37222;DHT22;23119;51.842;-2.230;2023-05-23T14:56:54;23.80;81.20
37222;DHT22;23119;51.842;-2.230;2023-05-23T14:59:23;23.80;80.90
37222;DHT22;23119;51.842;-2.230;2023-05-23T15:01:49;23.70;80.70
37222;DHT22;23119;51.842;-2.230;2023-05-23T15:04:33;23.90;81.20
37222;DHT22;23119;51.842;-2.230;2023-05-23T15:06:59;23.70;81.10
37222;DHT22;23119;51.842;-2.230;2023-05-23T15:09:26;23.50;81.00
37222;DHT22;23119;51.842;-2.230;2023-05-23T15:11:53;23.50;81.10
37222;DHT22;23119;51.842;-2.230;2023-05-23T15:14:19;23.40;80.70
37222;DHT22;23119;51.842;-2.230;2023-05-23T15:16:46;23.30;80.20
37222;DHT22;23119;51.842;-2.230;2023-05-23T15:19:16;23.20;80.10
37222;DHT22;23119;51.842;-2.230;2023-05-23T15:21:50;23.10;80.60
37222;DHT22;23119;51.842;-2.230;2023-05-23T15:24:16;22.90;80.60
37222;DHT22;23119;51.842;-2.230;2023-05-23T15:26:42;22.90;81.20
37222;DHT22;23119;51.842;-2.230;2023-05-23T15:29:08;23.00;81.30
37222;DHT22;23119;51.842;-2.230;2023-05-23T15:31:41;22.90;81.00
37222;DHT22;23119;51.842;-2.230;2023-05-23T15:34:07;22.90;81.30
37222;DHT22;23119;51.842;-2.230;2023-05-23T15:36:35;22.80;81.20
37222;DHT22;23119;51.842;-2.230;2023-05-23T15:39:02;22.90;81.60
37222;DHT22;23119;51.842;-2.230;2023-05-23T15:41:29;23.00;81.90
37222;DHT22;23119;51.842;-2.230;2023-05-23T15:43:55;23.10;81.80
37222;DHT22;23119;51.842;-2.230;2023-05-23T15:46:21;23.20;81.80
37222;DHT22;23119;51.842;-2.230;2023-05-23T15:48:50;23.20;80.40
37222;DHT22;23119;51.842;-2.230;2023-05-23T15:51:16;23.20;80.80
37222;DHT22;23119;51.842;-2.230;2023-05-23T15:53:51;23.10;81.20
37222;DHT22;23119;51.842;-2.230;2023-05-23T15:56:17;23.00;80.30
37222;DHT22;23119;51.842;-2.230;2023-05-23T15:58:43;23.00;80.60